Idabel, OK

1:34 PM CDT on September 17, 2014 (GMT -0500)
Fuller Farms | Change Station
CLOSE
Current Station
Personal Weather Station
Location: Haworth, OK
Elevation: 433 ft
Nearby Weather Stations

Elev 433 ft 33.82 °N, 94.71 °W | Updated 14 seconds ago

Partly Cloudy
Partly Cloudy
83.6 °F
Feels Like 91 °F
N
0.0
Wind Variable Wind from ESE
Gusts 5.0 mph

Today
High -- | Low -- °F
--% Chance of Precip.
Yesterday
High -- | Low -- °F
Precip. -- in
7:03 AM 7:22 PM
Waning Crescent, 34% visible
Pressure 29.97 in
Visibility 10.0 miles
Clouds Clear
Heat Index 91 °F
Dew Point 74 °F
Humidity 74%
Rainfall 0.00 in
Snow Depth Not available.
UV 9 out of 12
Pollen 10.40 out of 12
Air Quality Not available.
Flu Activity Not available.
METAR K4O4 171815Z AUTO 19003KT 10SM CLR 28/21 A2997 RMK AO2

More Conditions Fewer Conditions

Pressure 29.97 in
Visibility 10.0 miles
Clouds Clear
Heat Index 91 °F
Dew Point 74 °F
Humidity 74%
Rainfall 0.00 in
Snow Depth Not available.
UV 9 out of 12
Pollen 10.40 out of 12
Air Quality Not available.
Flu Activity Not available.
METAR K4O4 171815Z AUTO 19003KT 10SM CLR 28/21 A2997 RMK AO2

More Conditions Fewer Conditions

10-Day Weather Forecast

Almanac

Astronomy

Sep. 17, 2014 Rise Set
Actual Time 7:03 AM CDT 7:22 PM CDT
Civil Twilight 6:38 AM CDT 7:47 PM CDT
Nautical Twilight 6:09 AM CDT 8:16 PM CDT
Astronomical Twilight 5:39 AM CDT 8:46 PM CDT
Moon 1:16 AM CDT 3:21 PM CDT
Length of Visible Light 13h 08m
Length of Day
12h 19m
Tomorrow will be 2m 5s shorter.
Waning Crescent, 34% of the Moon is Illuminated
Today
Waning Crescent
Sep 24
New
Oct 1
First Quarter
Oct 8
Full
Oct 15
Last Quarter

Today's Extremes

State Highs State Lows

Community

WunderPhotos

Upload Photos

1,754,127 photos uploaded!

WunderBlogs® & News

Nearby

Snow Depth

Station Depth Elevation
No new snow has been reported.

Earthquake Activity

City Distance Mag. Time & Date
No recent earthquake activity has been reported nearby.
Minimum magnitude displayed is 2.5.

Coastal Water Temperatures

Place Temperature
No Stations Reporting

Nearby Weather Stations